This is the latest recevied weather packets stored in our database for station/object KC1TWD. If no packets are shown the sender has not sent any weather packets the latest 10 day(s).
| Time | Temp. | Humidity | Pressure | Rain* | Wind** | Luminosity | Snow |
|---|---|---|---|---|---|---|---|
| 1778025925 | 19.44° C | 78% | 1007.2 hPa | 0 mm | - | - | - |
| 1778025622 | 20.56° C | 68% | 1007.7 hPa | 0 mm | - | - | - |
| 1778025320 | 20.56° C | 64% | 1007.7 hPa | 0 mm | - | - | - |
| 1778025016 | 20.56° C | 61% | 1007.3 hPa | 0 mm | - | - | - |
| 1778024714 | 20.56° C | 60% | 1007.1 hPa | 0 mm | - | - | - |
| 1778024411 | 21.11° C | 60% | 1006.9 hPa | 0 mm | - | - | - |
| 1778024108 | 21.11° C | 60% | 1006.9 hPa | 0 mm | - | - | - |
| 1778023805 | 21.11° C | 59% | 1006.7 hPa | 0 mm | - | - | - |
| 1778023503 | 21.67° C | 58% | 1006.7 hPa | 0 mm | - | - | - |
| 1778023200 | 21.67° C | 57% | 1006.2 hPa | 0 mm | - | - | - |
| 1778022897 | 22.22° C | 54% | 1006.1 hPa | 0 mm | - | - | - |
| 1778022595 | 22.22° C | 54% | 1006 hPa | 0 mm | - | - | - |
| 1778022293 | 22.78° C | 53% | 1006 hPa | 0 mm | - | - | - |
| 1778021989 | 22.78° C | 52% | 1005.8 hPa | 0 mm | - | - | - |
| 1778021686 | 22.78° C | 51% | 1005.3 hPa | 0 mm | - | - | - |
| 1778021382 | 22.78° C | 52% | 1005 hPa | 0 mm | - | - | - |
| 1778021079 | 23.33° C | 50% | 1005.1 hPa | 0 mm | - | - | - |
| 1778020777 | 23.33° C | 49% | 1005 hPa | 0 mm | - | - | - |
| 1778020473 | 23.33° C | 49% | 1004.8 hPa | 0 mm | - | - | - |
| 1778020169 | 23.89° C | 47% | 1004.9 hPa | 0 mm | - | - | - |
| 1778019866 | 25° C | 44% | 1004.7 hPa | 0 mm | - | - | - |
| 1778019562 | 25.56° C | 41% | 1004.6 hPa | 0 mm | - | - | - |
| 1778019259 | 25.56° C | 42% | 1004.7 hPa | 0 mm | - | - | - |
| 1778018957 | 26.11° C | 41% | 1004.5 hPa | 0 mm | - | - | - |
| 1778018653 | 26.11° C | 40% | 1004.4 hPa | 0 mm | - | - | - |
* Rain latest hour (hover to see other rain measurements)
** Current wind speed in m/s (hover to see current wind gust speed)